createdAt,value
2023-06-07T00:00:48.208Z,47.65
2023-06-07T00:03:15.962Z,46.72
2023-06-07T00:05:44.617Z,46.34
2023-06-07T00:08:11.334Z,47.44
2023-06-07T00:10:38.516Z,46.73
2023-06-07T00:13:05.478Z,46.86
2023-06-07T00:15:32.436Z,46.59
2023-06-07T00:18:02.086Z,46.23
2023-06-07T00:20:31.712Z,46.56
2023-06-07T00:22:59.176Z,45.69
2023-06-07T00:25:26.205Z,45.90
2023-06-07T00:27:54.102Z,46.37
2023-06-07T00:30:20.809Z,46.90
2023-06-07T00:32:48.255Z,47.01
2023-06-07T00:35:15.248Z,46.39
2023-06-07T00:37:42.451Z,46.10
2023-06-07T00:40:09.456Z,46.28
2023-06-07T00:42:36.354Z,46.15
2023-06-07T00:45:03.083Z,46.36
2023-06-07T00:47:30.730Z,46.18
2023-06-07T00:49:57.803Z,46.85
2023-06-07T00:52:25.104Z,47.24
2023-06-07T00:54:52.261Z,46.54
2023-06-07T00:57:18.978Z,46.32
2023-06-07T00:59:46.609Z,46.41
2023-06-07T01:02:16.816Z,46.20
2023-06-07T01:04:44.662Z,46.42
2023-06-07T01:07:12.395Z,46.00
2023-06-07T01:09:41.180Z,46.95
2023-06-07T01:12:14.567Z,46.72
2023-06-07T01:14:44.381Z,46.44
2023-06-07T01:17:13.925Z,47.05
2023-06-07T01:19:43.610Z,46.36
2023-06-07T01:22:11.731Z,46.27
2023-06-07T01:24:44.219Z,45.99
2023-06-07T01:27:11.401Z,46.90
2023-06-07T01:29:40.680Z,47.14
2023-06-07T01:32:13.267Z,47.13
2023-06-07T01:34:41.142Z,46.27
2023-06-07T01:37:08.917Z,48.30
2023-06-07T01:39:37.265Z,47.51
2023-06-07T01:42:05.070Z,47.32
2023-06-07T01:44:32.888Z,47.62
2023-06-07T01:46:59.599Z,47.51
2023-06-07T01:49:26.242Z,47.05
2023-06-07T01:51:52.872Z,48.47
2023-06-07T01:54:20.255Z,48.39
2023-06-07T01:56:57.130Z,48.67
2023-06-07T01:59:51.867Z,48.60
2023-06-07T02:02:22.963Z,48.45
2023-06-07T02:04:58.755Z,48.67
2023-06-07T02:07:29.549Z,48.99
2023-06-07T02:10:02.930Z,48.33
2023-06-07T02:12:31.450Z,48.88
2023-06-07T02:17:49.848Z,48.38
2023-06-07T02:20:18.299Z,48.23
2023-06-07T02:22:45.631Z,47.58
2023-06-07T02:25:12.268Z,47.58
2023-06-07T02:27:39.130Z,47.45
2023-06-07T02:30:06.791Z,47.12
2023-06-07T02:32:34.552Z,47.56
2023-06-07T02:35:02.180Z,47.59
2023-06-07T02:37:29.546Z,47.85
2023-06-07T02:39:56.230Z,48.30
2023-06-07T02:42:23.266Z,48.47
2023-06-07T02:44:50.169Z,49.90
2023-06-07T02:47:16.789Z,49.91
2023-06-07T02:49:44.014Z,49.11
2023-06-07T02:52:11.788Z,49.36
2023-06-07T02:54:41.000Z,49.40
2023-06-07T02:57:09.024Z,49.61
2023-06-07T02:59:35.745Z,49.38
2023-06-07T03:02:02.605Z,50.54
2023-06-07T03:04:32.046Z,49.60
2023-06-07T03:07:01.598Z,48.32
2023-06-07T03:09:33.539Z,48.19
2023-06-07T03:12:00.344Z,48.73
2023-06-07T03:14:32.259Z,49.53
2023-06-07T03:16:59.031Z,49.17
2023-06-07T03:19:26.438Z,49.46
2023-06-07T03:21:56.021Z,49.44
2023-06-07T03:24:24.510Z,48.08
2023-06-07T03:26:51.489Z,47.43
2023-06-07T03:29:19.002Z,47.93
2023-06-07T03:31:45.714Z,48.34
2023-06-07T03:34:16.383Z,48.65
2023-06-07T03:36:43.933Z,48.82
2023-06-07T03:39:14.351Z,48.86
2023-06-07T03:41:41.629Z,47.88
2023-06-07T03:44:09.978Z,48.34
2023-06-07T03:46:39.158Z,47.77
2023-06-07T03:49:05.841Z,47.70
2023-06-07T03:51:34.055Z,47.59
2023-06-07T03:54:03.255Z,47.80
2023-06-07T03:56:30.747Z,48.22
2023-06-07T03:58:58.263Z,50.07
2023-06-07T04:01:26.969Z,50.20
2023-06-07T04:03:55.985Z,51.72
2023-06-07T04:06:25.195Z,51.30
2023-06-07T04:08:53.146Z,49.80
2023-06-07T04:11:20.491Z,51.70
2023-06-07T04:13:47.738Z,51.82
2023-06-07T04:16:14.523Z,51.99
2023-06-07T04:18:44.481Z,51.36
2023-06-07T04:21:13.791Z,51.96
2023-06-07T04:23:42.967Z,51.13
2023-06-07T04:26:10.949Z,50.82
2023-06-07T04:28:41.760Z,50.60
2023-06-07T04:31:09.958Z,50.51
2023-06-07T04:33:38.571Z,50.63
2023-06-07T04:36:06.082Z,49.29
2023-06-07T04:38:33.609Z,49.52
2023-06-07T04:41:08.810Z,49.07
2023-06-07T04:43:42.133Z,47.93
2023-06-07T04:46:14.170Z,47.40
2023-06-07T04:48:42.407Z,47.61
2023-06-07T04:51:09.730Z,46.75
2023-06-07T04:53:44.043Z,46.76
2023-06-07T04:56:13.956Z,47.01
2023-06-07T04:58:41.657Z,47.16
2023-06-07T05:01:12.416Z,45.65
2023-06-07T05:03:43.671Z,45.00
2023-06-07T05:06:12.946Z,45.14
2023-06-07T05:08:40.142Z,44.69
2023-06-07T05:11:07.394Z,43.45
2023-06-07T05:13:34.140Z,43.06
2023-06-07T05:16:02.387Z,41.69
2023-06-07T05:18:29.806Z,40.37
2023-06-07T05:20:58.620Z,40.43
2023-06-07T05:23:26.882Z,39.69
2023-06-07T05:25:54.484Z,37.32
2023-06-07T05:28:22.056Z,35.56
2023-06-07T05:30:52.910Z,35.19
2023-06-07T05:33:22.408Z,33.46
2023-06-07T05:35:49.365Z,33.21
2023-06-07T05:38:17.997Z,33.21
2023-06-07T05:40:44.634Z,34.07
2023-06-07T05:43:11.613Z,34.68
2023-06-07T05:45:41.342Z,35.28
2023-06-07T05:48:08.834Z,36.92
2023-06-07T05:50:35.640Z,36.89
2023-06-07T05:53:02.261Z,37.25
2023-06-07T05:55:29.629Z,37.38
2023-06-07T05:57:58.358Z,37.61
2023-06-07T06:00:25.839Z,37.52
2023-06-07T06:02:54.076Z,37.84
2023-06-07T06:05:29.137Z,38.12
2023-06-07T06:07:58.000Z,38.10
2023-06-07T06:10:25.852Z,38.22
2023-06-07T06:12:52.678Z,38.56
2023-06-07T06:15:19.367Z,38.67
2023-06-07T06:17:46.133Z,37.79
2023-06-07T06:20:13.425Z,37.84
2023-06-07T06:22:40.265Z,37.58
2023-06-07T06:25:07.363Z,37.46
2023-06-07T06:27:34.260Z,36.96
2023-06-07T06:30:01.062Z,36.66
2023-06-07T06:32:27.754Z,36.45
2023-06-07T06:34:54.423Z,36.81
2023-06-07T06:37:21.587Z,36.69
2023-06-07T06:39:49.574Z,35.47
2023-06-07T06:42:16.446Z,34.88
2023-06-07T06:45:11.600Z,33.55
2023-06-07T06:47:42.586Z,32.33
2023-06-07T06:50:30.323Z,32.08
2023-06-07T06:53:01.992Z,30.85
2023-06-07T06:55:28.830Z,30.26
2023-06-07T06:57:56.257Z,28.91
2023-06-07T07:00:24.485Z,29.10
2023-06-07T07:02:51.342Z,28.41
2023-06-07T07:05:17.978Z,29.20
2023-06-07T07:07:44.672Z,29.52
2023-06-07T07:10:13.204Z,30.25
2023-06-07T07:12:40.766Z,29.73
2023-06-07T07:15:07.668Z,29.66
2023-06-07T07:17:34.566Z,29.12
2023-06-07T07:20:01.242Z,29.32
2023-06-07T07:22:28.784Z,29.10
2023-06-07T07:24:56.427Z,28.70
2023-06-07T07:27:24.038Z,28.44
2023-06-07T07:29:50.653Z,25.97
2023-06-07T07:32:17.317Z,26.71
2023-06-07T07:34:44.045Z,25.52
2023-06-07T07:37:11.231Z,24.60
2023-06-07T07:39:38.956Z,26.11
2023-06-07T07:42:06.815Z,26.79
2023-06-07T07:44:34.638Z,27.17
2023-06-07T07:47:01.772Z,27.43
2023-06-07T07:49:28.474Z,28.16
2023-06-07T07:51:58.197Z,29.63
2023-06-07T07:54:25.544Z,29.71
2023-06-07T07:56:52.354Z,30.13
2023-06-07T07:59:19.037Z,30.47
2023-06-07T08:01:46.623Z,31.02
2023-06-07T08:04:13.752Z,31.18
2023-06-07T08:06:40.834Z,30.69
2023-06-07T08:09:07.443Z,31.63
2023-06-07T08:11:34.295Z,31.83
2023-06-07T08:14:00.899Z,31.85
2023-06-07T08:16:27.679Z,32.11
2023-06-07T08:19:00.576Z,31.55
2023-06-07T08:21:27.502Z,31.57
2023-06-07T08:23:56.154Z,31.45
2023-06-07T08:26:23.502Z,31.15
2023-06-07T08:28:50.139Z,31.82
2023-06-07T08:31:18.959Z,31.66
2023-06-07T08:33:47.353Z,31.82
2023-06-07T08:36:16.085Z,32.28
2023-06-07T08:38:42.759Z,31.90
2023-06-07T08:41:10.166Z,31.20
2023-06-07T08:43:38.840Z,32.10
2023-06-07T08:46:06.582Z,32.42
2023-06-07T08:48:37.133Z,31.99
2023-06-07T08:51:08.174Z,31.50
2023-06-07T08:53:48.017Z,31.42
2023-06-07T08:56:18.189Z,31.35
2023-06-07T08:58:45.401Z,31.25
2023-06-07T09:01:12.902Z,31.43
2023-06-07T09:03:41.190Z,31.21
2023-06-07T09:06:09.642Z,31.74
2023-06-07T09:08:37.141Z,31.34
2023-06-07T09:11:03.777Z,30.90
2023-06-07T09:13:31.283Z,31.32
2023-06-07T09:16:00.449Z,30.97
2023-06-07T09:18:43.902Z,30.68
2023-06-07T09:21:21.501Z,30.69
2023-06-07T09:23:49.454Z,31.83
2023-06-07T09:26:17.328Z,31.56
2023-06-07T09:28:46.953Z,31.40
2023-06-07T09:31:14.597Z,30.13
2023-06-07T09:33:41.343Z,31.09
2023-06-07T09:36:16.321Z,30.52
2023-06-07T09:38:43.397Z,31.23
2023-06-07T09:41:14.135Z,30.32
2023-06-07T09:43:45.130Z,30.69
2023-06-07T09:46:12.779Z,30.59
2023-06-07T09:48:50.892Z,30.52
2023-06-07T09:51:19.701Z,29.37
2023-06-07T09:53:50.810Z,29.49
2023-06-07T09:56:18.000Z,30.19
2023-06-07T09:58:47.362Z,29.55
2023-06-07T10:01:14.520Z,29.74
2023-06-07T10:03:48.031Z,28.70
2023-06-07T10:06:17.475Z,29.51
2023-06-07T10:08:45.697Z,29.55
2023-06-07T10:11:14.861Z,28.21
2023-06-07T10:13:43.138Z,28.69
2023-06-07T10:16:11.642Z,28.13
2023-06-07T10:18:41.083Z,28.93
2023-06-07T10:21:15.252Z,27.74
2023-06-07T10:23:51.597Z,26.78
2023-06-07T10:26:30.088Z,26.89
2023-06-07T10:29:10.822Z,26.66
2023-06-07T10:32:07.940Z,26.08
2023-06-07T10:34:37.509Z,26.22
2023-06-07T10:37:08.369Z,26.75
2023-06-07T10:39:37.274Z,25.63
2023-06-07T10:42:04.189Z,25.48
2023-06-07T10:44:31.693Z,25.57
2023-06-07T10:47:23.144Z,25.09
2023-06-07T10:49:50.677Z,25.91
2023-06-07T10:52:18.004Z,25.26
2023-06-07T10:54:45.478Z,25.32
2023-06-07T10:57:12.596Z,25.06
2023-06-07T10:59:40.674Z,24.80
2023-06-07T11:02:24.916Z,24.37
2023-06-07T11:05:04.485Z,24.95
2023-06-07T11:07:33.076Z,25.96
2023-06-07T11:10:06.813Z,25.40
2023-06-07T11:12:37.131Z,25.64
2023-06-07T11:15:23.210Z,25.91
2023-06-07T11:17:57.852Z,26.01
2023-06-07T11:20:37.498Z,26.32
2023-06-07T11:23:31.739Z,26.55
2023-06-07T11:26:08.111Z,26.14
2023-06-07T11:28:39.400Z,24.76
2023-06-07T11:31:13.878Z,24.53
2023-06-07T11:33:44.848Z,24.57
2023-06-07T11:36:12.290Z,25.15
2023-06-07T11:38:40.147Z,24.17
2023-06-07T11:41:07.016Z,26.06
2023-06-07T11:43:34.583Z,25.29
2023-06-07T11:46:01.747Z,24.92
2023-06-07T11:48:30.159Z,25.38
2023-06-07T11:50:57.744Z,25.93
2023-06-07T11:53:24.818Z,25.43
2023-06-07T11:55:53.880Z,25.72
2023-06-07T11:58:20.568Z,24.41
2023-06-07T12:00:48.804Z,24.56
2023-06-07T12:03:17.576Z,24.55
2023-06-07T12:05:46.055Z,24.04
2023-06-07T12:08:15.715Z,24.40
2023-06-07T12:10:42.772Z,25.11
2023-06-07T12:13:14.719Z,25.50
2023-06-07T12:16:00.260Z,25.68
2023-06-07T12:18:33.766Z,25.02
2023-06-07T12:21:04.938Z,23.57
2023-06-07T12:23:32.847Z,24.93
2023-06-07T12:26:16.204Z,24.21
2023-06-07T12:28:44.618Z,24.82
2023-06-07T12:31:21.139Z,26.19
2023-06-07T12:33:58.832Z,25.50
2023-06-07T12:36:31.604Z,25.92
2023-06-07T12:39:06.774Z,25.38
2023-06-07T12:41:34.420Z,25.69
2023-06-07T12:44:04.568Z,24.33
2023-06-07T12:46:32.165Z,24.71
2023-06-07T12:48:58.929Z,25.53
2023-06-07T12:51:26.852Z,25.43
2023-06-07T12:53:54.740Z,24.94
2023-06-07T12:56:25.104Z,24.91
2023-06-07T12:58:51.962Z,25.46
2023-06-07T13:01:18.863Z,24.91
2023-06-07T13:03:46.416Z,25.22
2023-06-07T13:06:13.184Z,24.81
2023-06-07T13:08:39.853Z,24.92
2023-06-07T13:11:07.229Z,26.05
2023-06-07T13:13:34.269Z,25.22
2023-06-07T13:16:01.891Z,24.39
2023-06-07T13:18:30.455Z,25.16
2023-06-07T13:20:57.281Z,25.70
2023-06-07T13:23:24.709Z,25.26
2023-06-07T13:25:52.010Z,24.90
2023-06-07T13:28:20.810Z,24.37
2023-06-07T13:30:48.438Z,25.76
2023-06-07T13:33:19.418Z,25.18
2023-06-07T13:35:46.159Z,25.52
2023-06-07T13:38:13.283Z,25.44
2023-06-07T13:40:40.311Z,25.65
2023-06-07T13:43:07.838Z,25.61
2023-06-07T13:45:34.895Z,25.59
2023-06-07T13:48:02.650Z,25.29
2023-06-07T13:50:30.950Z,25.90
2023-06-07T13:52:57.743Z,25.47
2023-06-07T13:55:25.042Z,25.59
2023-06-07T13:57:52.194Z,25.62
2023-06-07T14:00:19.538Z,25.50
2023-06-07T14:02:46.670Z,25.56
2023-06-07T14:05:14.656Z,26.26
2023-06-07T14:07:42.031Z,27.06
2023-06-07T14:10:09.533Z,25.67
2023-06-07T14:12:36.131Z,26.96
2023-06-07T14:15:03.166Z,26.20
2023-06-07T14:17:30.543Z,26.02
2023-06-07T14:19:57.452Z,26.31
2023-06-07T14:22:24.090Z,27.03
2023-06-07T14:24:51.022Z,27.61
2023-06-07T14:27:17.625Z,27.91
2023-06-07T14:29:44.264Z,26.56
2023-06-07T14:32:11.350Z,27.05
2023-06-07T14:34:37.959Z,27.24
2023-06-07T14:37:04.619Z,27.30
2023-06-07T14:39:31.719Z,27.01
2023-06-07T14:41:58.391Z,26.76
2023-06-07T14:44:25.345Z,27.32
2023-06-07T14:46:52.237Z,26.45
2023-06-07T14:49:18.857Z,27.81
2023-06-07T14:51:48.868Z,27.05
2023-06-07T14:54:16.035Z,27.36
2023-06-07T14:56:42.838Z,27.86
2023-06-07T14:59:14.017Z,27.38
2023-06-07T15:01:41.413Z,26.70
2023-06-07T15:04:08.936Z,26.98
2023-06-07T15:06:36.831Z,27.13
2023-06-07T15:09:04.631Z,26.44
2023-06-07T15:11:31.397Z,27.64
2023-06-07T15:13:58.094Z,26.54
2023-06-07T15:16:24.890Z,26.92
2023-06-07T15:18:51.747Z,27.84
2023-06-07T15:21:20.171Z,27.36
2023-06-07T15:23:49.788Z,27.35
2023-06-07T15:26:17.479Z,26.51
2023-06-07T15:28:44.691Z,26.91
2023-06-07T15:31:11.375Z,27.94
2023-06-07T15:33:38.108Z,26.90
2023-06-07T15:36:05.288Z,27.58
2023-06-07T15:38:38.229Z,28.11
2023-06-07T15:41:09.249Z,27.55
2023-06-07T15:43:37.031Z,27.70
2023-06-07T15:46:04.501Z,27.92
2023-06-07T15:48:31.642Z,27.54
2023-06-07T15:50:58.650Z,26.90
2023-06-07T15:53:25.401Z,26.53
2023-06-07T15:55:52.181Z,27.02
2023-06-07T15:58:19.163Z,27.08
2023-06-07T16:00:49.496Z,27.04
2023-06-07T16:03:17.035Z,27.31
2023-06-07T16:05:43.834Z,28.08
2023-06-07T16:08:14.094Z,28.51
2023-06-07T16:10:43.397Z,29.06
2023-06-07T16:13:10.222Z,28.34
2023-06-07T16:15:37.457Z,28.95
2023-06-07T16:18:05.740Z,28.76
2023-06-07T16:20:32.762Z,28.81
2023-06-07T16:22:59.510Z,28.85
2023-06-07T16:25:26.144Z,29.61
2023-06-07T16:27:52.733Z,30.11
2023-06-07T16:30:19.664Z,29.88
2023-06-07T16:32:46.513Z,29.90
2023-06-07T16:35:13.176Z,29.84
2023-06-07T16:37:39.776Z,30.24
2023-06-07T16:40:07.251Z,29.96
2023-06-07T16:42:34.107Z,29.63
2023-06-07T16:45:00.769Z,29.37
2023-06-07T16:47:28.466Z,28.98
2023-06-07T16:49:55.420Z,29.14
2023-06-07T16:52:22.417Z,29.11
2023-06-07T16:54:49.033Z,29.23
2023-06-07T16:57:15.677Z,28.66
2023-06-07T16:59:42.455Z,29.11
2023-06-07T17:02:09.233Z,29.19
2023-06-07T17:04:36.597Z,29.13
2023-06-07T17:07:04.190Z,28.54
2023-06-07T17:09:31.257Z,28.90
2023-06-07T17:11:58.059Z,28.82
2023-06-07T17:14:24.759Z,29.07
2023-06-07T17:16:52.207Z,28.88
2023-06-07T17:19:19.751Z,28.93
2023-06-07T17:21:46.503Z,29.28
2023-06-07T17:24:13.335Z,29.14
2023-06-07T17:26:40.111Z,29.62
2023-06-07T17:29:27.593Z,29.01
2023-06-07T17:31:54.168Z,29.20
2023-06-07T17:34:20.975Z,29.31
2023-06-07T17:36:47.787Z,29.87
2023-06-07T17:39:16.095Z,30.93
2023-06-07T17:41:42.904Z,32.04
2023-06-07T17:44:09.808Z,32.64
2023-06-07T17:46:37.052Z,33.30
2023-06-07T17:49:04.041Z,33.20
2023-06-07T17:51:31.217Z,34.23
2023-06-07T17:53:57.965Z,34.25
2023-06-07T17:56:26.628Z,34.16
2023-06-07T17:58:53.805Z,35.11
2023-06-07T18:01:20.624Z,35.61
2023-06-07T18:03:47.392Z,36.02
2023-06-07T18:06:14.140Z,36.29
2023-06-07T18:08:40.773Z,36.58
2023-06-07T18:11:08.264Z,37.45
2023-06-07T18:13:35.979Z,37.41
2023-06-07T18:16:02.838Z,36.93
2023-06-07T18:18:30.822Z,37.32
2023-06-07T18:20:57.592Z,37.68
2023-06-07T18:23:24.366Z,37.99
2023-06-07T18:25:51.351Z,37.70
2023-06-07T18:28:18.468Z,37.29
2023-06-07T18:30:45.157Z,37.86
2023-06-07T18:33:11.973Z,37.41
2023-06-07T18:35:38.684Z,37.79
2023-06-07T18:38:05.314Z,37.46
2023-06-07T18:40:33.464Z,37.45
2023-06-07T18:43:00.137Z,37.21
2023-06-07T18:45:27.180Z,36.96
2023-06-07T18:47:54.023Z,37.22
2023-06-07T18:50:21.204Z,37.04
2023-06-07T18:52:47.907Z,37.43
2023-06-07T18:55:14.774Z,37.28
2023-06-07T18:57:41.596Z,37.91
2023-06-07T19:00:08.857Z,38.12
2023-06-07T19:02:37.144Z,37.86
2023-06-07T19:05:04.344Z,38.33
2023-06-07T19:07:31.568Z,38.64
2023-06-07T19:09:58.318Z,38.94
2023-06-07T19:12:28.100Z,38.25
2023-06-07T19:14:56.386Z,38.47
2023-06-07T19:17:23.144Z,38.04
2023-06-07T19:19:49.930Z,37.98
2023-06-07T19:22:16.569Z,37.84
2023-06-07T19:24:46.746Z,37.44
2023-06-07T19:27:13.629Z,38.08
2023-06-07T19:29:41.898Z,38.48
2023-06-07T19:32:10.043Z,37.77
2023-06-07T19:34:37.340Z,38.44
2023-06-07T19:37:04.534Z,37.48
2023-06-07T19:39:34.367Z,37.05
2023-06-07T19:42:04.443Z,36.58
2023-06-07T19:44:31.260Z,37.38
2023-06-07T19:47:03.276Z,36.99
2023-06-07T19:49:30.791Z,37.56
2023-06-07T19:51:57.558Z,36.98
2023-06-07T19:54:24.218Z,37.02
2023-06-07T19:56:51.029Z,36.96
2023-06-07T19:59:18.064Z,36.95
2023-06-07T20:01:44.972Z,36.60
2023-06-07T20:04:14.379Z,36.99
2023-06-07T20:06:41.251Z,36.81
2023-06-07T20:09:08.433Z,36.60
2023-06-07T20:11:35.321Z,36.55
2023-06-07T20:14:02.127Z,37.00
2023-06-07T20:16:29.650Z,36.72
2023-06-07T20:18:56.446Z,36.96
2023-06-07T20:21:23.439Z,36.57
2023-06-07T20:23:50.287Z,36.95
2023-06-07T20:26:18.206Z,37.67
2023-06-07T20:28:45.203Z,37.30
2023-06-07T20:31:12.347Z,37.45
2023-06-07T20:33:40.128Z,37.22
2023-06-07T20:36:07.629Z,37.35
2023-06-07T20:38:34.333Z,37.32
2023-06-07T20:41:02.048Z,37.56
2023-06-07T20:43:29.561Z,37.51
2023-06-07T20:45:56.554Z,37.26
2023-06-07T20:48:23.650Z,37.99
2023-06-07T20:50:50.371Z,37.92
2023-06-07T20:53:17.365Z,37.25
2023-06-07T20:55:44.282Z,37.64
2023-06-07T20:58:11.390Z,37.01
2023-06-07T21:00:41.038Z,36.63
2023-06-07T21:03:08.534Z,37.62
2023-06-07T21:05:35.500Z,37.47
2023-06-07T21:08:02.960Z,38.35
2023-06-07T21:10:29.685Z,39.29
2023-06-07T21:12:56.314Z,38.92
2023-06-07T21:15:23.589Z,38.62
2023-06-07T21:17:50.350Z,39.04
2023-06-07T21:20:18.478Z,38.69
2023-06-07T21:22:45.151Z,38.66
2023-06-07T21:25:11.985Z,38.87
2023-06-07T21:27:38.766Z,38.61
2023-06-07T21:30:06.404Z,38.23
2023-06-07T21:32:33.286Z,38.26
2023-06-07T21:35:00.436Z,37.70
2023-06-07T21:37:27.148Z,37.96
2023-06-07T21:39:53.827Z,37.71
2023-06-07T21:42:20.678Z,38.27
2023-06-07T21:44:47.921Z,38.37
2023-06-07T21:47:14.615Z,38.57
2023-06-07T21:49:41.266Z,38.72
2023-06-07T21:52:08.800Z,39.20
2023-06-07T21:54:44.426Z,39.72
2023-06-07T21:57:11.412Z,39.31
2023-06-07T21:59:38.124Z,39.14
2023-06-07T22:02:06.396Z,40.20
2023-06-07T22:04:33.243Z,39.52
2023-06-07T22:07:00.217Z,39.98
2023-06-07T22:09:26.968Z,39.77
2023-06-07T22:11:55.476Z,40.12
2023-06-07T22:14:22.945Z,39.58
2023-06-07T22:16:50.394Z,40.56
2023-06-07T22:19:20.119Z,40.67
2023-06-07T22:21:49.743Z,41.11
2023-06-07T22:24:19.187Z,41.03
2023-06-07T22:26:46.993Z,41.34
2023-06-07T22:29:14.172Z,41.51
2023-06-07T22:31:41.107Z,41.07
2023-06-07T22:34:08.962Z,42.10
2023-06-07T22:36:41.426Z,41.91
2023-06-07T22:39:10.158Z,42.04
2023-06-07T22:41:37.846Z,42.84
2023-06-07T22:44:05.188Z,43.51
2023-06-07T22:46:34.931Z,43.05
2023-06-07T22:49:01.938Z,43.13
2023-06-07T22:51:31.660Z,42.91
2023-06-07T22:53:58.651Z,43.60
2023-06-07T22:56:26.046Z,43.27
2023-06-07T22:58:52.727Z,43.30
2023-06-07T23:01:19.894Z,43.44
2023-06-07T23:03:47.998Z,44.11
2023-06-07T23:06:15.310Z,44.24
2023-06-07T23:08:41.996Z,43.90
2023-06-07T23:11:08.985Z,44.16
2023-06-07T23:13:36.169Z,43.80
2023-06-07T23:16:03.627Z,44.01
2023-06-07T23:18:31.119Z,44.84
2023-06-07T23:20:58.336Z,45.11
2023-06-07T23:23:25.076Z,44.89
2023-06-07T23:25:51.843Z,44.30
2023-06-07T23:28:18.499Z,45.26
2023-06-07T23:30:45.136Z,45.13
2023-06-07T23:33:12.977Z,44.46
2023-06-07T23:35:42.033Z,44.60
2023-06-07T23:38:08.882Z,45.43
2023-06-07T23:40:35.660Z,45.93
2023-06-07T23:43:05.182Z,45.27
2023-06-07T23:45:32.317Z,45.54
2023-06-07T23:48:00.104Z,45.58
2023-06-07T23:50:26.983Z,46.56
2023-06-07T23:52:54.128Z,45.55
2023-06-07T23:55:21.294Z,45.50
2023-06-07T23:57:48.447Z,45.88
